sensor_id;sensor_type;location;lat;lon;timestamp;P1;durP1;ratioP1;P2;durP2;ratioP2
20340;SDS011;10328;50.042;8.238;2022-07-06T00:00:16;6.43;;;3.00;;
20340;SDS011;10328;50.042;8.238;2022-07-06T00:02:43;4.80;;;3.03;;
20340;SDS011;10328;50.042;8.238;2022-07-06T00:05:10;3.00;;;2.50;;
20340;SDS011;10328;50.042;8.238;2022-07-06T00:07:37;5.13;;;2.80;;
20340;SDS011;10328;50.042;8.238;2022-07-06T00:10:03;4.07;;;2.80;;
20340;SDS011;10328;50.042;8.238;2022-07-06T00:12:30;4.97;;;2.87;;
20340;SDS011;10328;50.042;8.238;2022-07-06T00:14:57;6.07;;;2.83;;
20340;SDS011;10328;50.042;8.238;2022-07-06T00:17:24;5.00;;;2.40;;
20340;SDS011;10328;50.042;8.238;2022-07-06T00:19:51;3.27;;;2.60;;
20340;SDS011;10328;50.042;8.238;2022-07-06T00:22:17;8.03;;;3.13;;
20340;SDS011;10328;50.042;8.238;2022-07-06T00:24:44;5.13;;;2.87;;
20340;SDS011;10328;50.042;8.238;2022-07-06T00:27:11;4.13;;;2.80;;
20340;SDS011;10328;50.042;8.238;2022-07-06T00:29:37;4.17;;;2.70;;
20340;SDS011;10328;50.042;8.238;2022-07-06T00:32:04;3.40;;;2.30;;
20340;SDS011;10328;50.042;8.238;2022-07-06T00:34:31;6.23;;;2.90;;
20340;SDS011;10328;50.042;8.238;2022-07-06T00:36:58;3.97;;;2.43;;
20340;SDS011;10328;50.042;8.238;2022-07-06T00:39:24;3.27;;;2.50;;
20340;SDS011;10328;50.042;8.238;2022-07-06T00:41:55;3.87;;;2.70;;
20340;SDS011;10328;50.042;8.238;2022-07-06T00:44:22;5.90;;;2.50;;
20340;SDS011;10328;50.042;8.238;2022-07-06T00:46:49;5.97;;;2.60;;
20340;SDS011;10328;50.042;8.238;2022-07-06T00:49:16;6.97;;;2.40;;
20340;SDS011;10328;50.042;8.238;2022-07-06T00:52:02;3.47;;;2.30;;
20340;SDS011;10328;50.042;8.238;2022-07-06T00:54:30;8.47;;;2.70;;
20340;SDS011;10328;50.042;8.238;2022-07-06T00:56:58;2.90;;;2.40;;
20340;SDS011;10328;50.042;8.238;2022-07-06T00:59:24;5.23;;;2.07;;
20340;SDS011;10328;50.042;8.238;2022-07-06T01:01:53;10.03;;;2.30;;
20340;SDS011;10328;50.042;8.238;2022-07-06T01:04:20;2.87;;;2.10;;
20340;SDS011;10328;50.042;8.238;2022-07-06T01:06:46;2.37;;;2.10;;
20340;SDS011;10328;50.042;8.238;2022-07-06T01:09:14;3.90;;;2.37;;
20340;SDS011;10328;50.042;8.238;2022-07-06T01:11:41;4.40;;;2.13;;
20340;SDS011;10328;50.042;8.238;2022-07-06T01:14:07;3.70;;;2.00;;
20340;SDS011;10328;50.042;8.238;2022-07-06T01:16:35;4.63;;;2.13;;
20340;SDS011;10328;50.042;8.238;2022-07-06T01:19:01;3.17;;;2.07;;
20340;SDS011;10328;50.042;8.238;2022-07-06T01:24:03;3.30;;;2.53;;
20340;SDS011;10328;50.042;8.238;2022-07-06T01:26:30;2.37;;;2.10;;
20340;SDS011;10328;50.042;8.238;2022-07-06T01:28:57;4.70;;;1.87;;
20340;SDS011;10328;50.042;8.238;2022-07-06T01:31:27;3.87;;;2.37;;
20340;SDS011;10328;50.042;8.238;2022-07-06T01:33:54;4.13;;;2.00;;
20340;SDS011;10328;50.042;8.238;2022-07-06T01:36:23;3.53;;;1.80;;
20340;SDS011;10328;50.042;8.238;2022-07-06T01:38:53;3.77;;;1.80;;
20340;SDS011;10328;50.042;8.238;2022-07-06T01:41:20;3.30;;;1.83;;
20340;SDS011;10328;50.042;8.238;2022-07-06T01:43:47;4.50;;;2.00;;
20340;SDS011;10328;50.042;8.238;2022-07-06T01:46:14;2.80;;;1.73;;
20340;SDS011;10328;50.042;8.238;2022-07-06T01:48:41;2.37;;;1.97;;
20340;SDS011;10328;50.042;8.238;2022-07-06T01:51:08;2.93;;;1.80;;
20340;SDS011;10328;50.042;8.238;2022-07-06T01:53:35;4.13;;;2.40;;
20340;SDS011;10328;50.042;8.238;2022-07-06T01:56:02;5.30;;;1.90;;
20340;SDS011;10328;50.042;8.238;2022-07-06T01:58:29;2.53;;;1.80;;
20340;SDS011;10328;50.042;8.238;2022-07-06T02:00:55;3.93;;;2.00;;
20340;SDS011;10328;50.042;8.238;2022-07-06T02:03:22;2.17;;;1.90;;
20340;SDS011;10328;50.042;8.238;2022-07-06T02:05:49;3.83;;;1.93;;
20340;SDS011;10328;50.042;8.238;2022-07-06T02:08:16;4.60;;;1.93;;
20340;SDS011;10328;50.042;8.238;2022-07-06T02:10:42;2.60;;;1.60;;
20340;SDS011;10328;50.042;8.238;2022-07-06T02:13:09;3.37;;;1.80;;
20340;SDS011;10328;50.042;8.238;2022-07-06T02:15:36;3.20;;;1.70;;
20340;SDS011;10328;50.042;8.238;2022-07-06T02:18:02;2.43;;;1.90;;
20340;SDS011;10328;50.042;8.238;2022-07-06T02:20:29;2.60;;;1.87;;
20340;SDS011;10328;50.042;8.238;2022-07-06T02:22:56;2.87;;;1.80;;
20340;SDS011;10328;50.042;8.238;2022-07-06T02:25:22;2.83;;;2.00;;
20340;SDS011;10328;50.042;8.238;2022-07-06T02:27:49;2.40;;;1.93;;
20340;SDS011;10328;50.042;8.238;2022-07-06T02:30:16;4.10;;;1.90;;
20340;SDS011;10328;50.042;8.238;2022-07-06T02:32:42;2.17;;;1.80;;
20340;SDS011;10328;50.042;8.238;2022-07-06T02:35:09;2.47;;;1.70;;
20340;SDS011;10328;50.042;8.238;2022-07-06T02:37:36;2.87;;;1.80;;
20340;SDS011;10328;50.042;8.238;2022-07-06T02:40:02;2.30;;;1.80;;
20340;SDS011;10328;50.042;8.238;2022-07-06T02:42:29;3.13;;;1.83;;
20340;SDS011;10328;50.042;8.238;2022-07-06T02:44:56;3.13;;;2.13;;
20340;SDS011;10328;50.042;8.238;2022-07-06T02:47:23;3.00;;;2.13;;
20340;SDS011;10328;50.042;8.238;2022-07-06T02:49:49;2.23;;;1.90;;
20340;SDS011;10328;50.042;8.238;2022-07-06T02:52:16;2.27;;;1.90;;
20340;SDS011;10328;50.042;8.238;2022-07-06T02:54:43;6.93;;;2.20;;
20340;SDS011;10328;50.042;8.238;2022-07-06T02:57:09;5.17;;;2.10;;
20340;SDS011;10328;50.042;8.238;2022-07-06T02:59:36;3.07;;;2.40;;
20340;SDS011;10328;50.042;8.238;2022-07-06T03:02:03;6.43;;;2.60;;
20340;SDS011;10328;50.042;8.238;2022-07-06T03:04:30;2.70;;;1.80;;
20340;SDS011;10328;50.042;8.238;2022-07-06T03:06:57;3.30;;;2.43;;
20340;SDS011;10328;50.042;8.238;2022-07-06T03:09:24;3.30;;;2.20;;
20340;SDS011;10328;50.042;8.238;2022-07-06T03:11:50;4.67;;;2.47;;
20340;SDS011;10328;50.042;8.238;2022-07-06T03:14:17;5.83;;;2.50;;
20340;SDS011;10328;50.042;8.238;2022-07-06T03:16:44;6.10;;;2.80;;
20340;SDS011;10328;50.042;8.238;2022-07-06T03:19:16;3.77;;;2.40;;
20340;SDS011;10328;50.042;8.238;2022-07-06T03:21:43;4.83;;;2.40;;
20340;SDS011;10328;50.042;8.238;2022-07-06T03:24:10;6.83;;;2.50;;
20340;SDS011;10328;50.042;8.238;2022-07-06T03:26:36;4.50;;;2.60;;
20340;SDS011;10328;50.042;8.238;2022-07-06T03:29:03;2.83;;;2.40;;
20340;SDS011;10328;50.042;8.238;2022-07-06T03:31:30;5.00;;;2.77;;
20340;SDS011;10328;50.042;8.238;2022-07-06T03:33:57;3.57;;;2.67;;
20340;SDS011;10328;50.042;8.238;2022-07-06T03:36:24;4.53;;;2.90;;
20340;SDS011;10328;50.042;8.238;2022-07-06T03:38:50;9.63;;;3.63;;
20340;SDS011;10328;50.042;8.238;2022-07-06T03:41:17;8.20;;;3.20;;
20340;SDS011;10328;50.042;8.238;2022-07-06T03:43:44;7.17;;;2.90;;
20340;SDS011;10328;50.042;8.238;2022-07-06T03:46:10;6.50;;;2.70;;
20340;SDS011;10328;50.042;8.238;2022-07-06T03:48:37;7.07;;;2.90;;
20340;SDS011;10328;50.042;8.238;2022-07-06T03:51:03;8.60;;;2.87;;
20340;SDS011;10328;50.042;8.238;2022-07-06T03:53:30;5.80;;;2.93;;
20340;SDS011;10328;50.042;8.238;2022-07-06T03:55:57;4.87;;;3.20;;
20340;SDS011;10328;50.042;8.238;2022-07-06T03:58:42;5.23;;;2.90;;
20340;SDS011;10328;50.042;8.238;2022-07-06T04:01:09;5.83;;;2.80;;
20340;SDS011;10328;50.042;8.238;2022-07-06T04:03:36;5.07;;;3.37;;
20340;SDS011;10328;50.042;8.238;2022-07-06T04:06:03;3.77;;;3.10;;
20340;SDS011;10328;50.042;8.238;2022-07-06T04:08:29;3.77;;;2.87;;
20340;SDS011;10328;50.042;8.238;2022-07-06T04:10:56;4.13;;;2.90;;
20340;SDS011;10328;50.042;8.238;2022-07-06T04:13:23;5.40;;;3.00;;
20340;SDS011;10328;50.042;8.238;2022-07-06T04:15:51;7.07;;;3.23;;
20340;SDS011;10328;50.042;8.238;2022-07-06T04:18:18;4.43;;;2.93;;
20340;SDS011;10328;50.042;8.238;2022-07-06T04:20:45;4.70;;;2.87;;
20340;SDS011;10328;50.042;8.238;2022-07-06T04:23:12;6.63;;;2.63;;
20340;SDS011;10328;50.042;8.238;2022-07-06T04:25:38;5.90;;;2.63;;
20340;SDS011;10328;50.042;8.238;2022-07-06T04:28:05;4.10;;;2.73;;
20340;SDS011;10328;50.042;8.238;2022-07-06T04:30:32;7.27;;;3.03;;
20340;SDS011;10328;50.042;8.238;2022-07-06T04:32:58;4.53;;;2.77;;
20340;SDS011;10328;50.042;8.238;2022-07-06T04:35:25;5.20;;;2.70;;
20340;SDS011;10328;50.042;8.238;2022-07-06T04:37:52;9.90;;;3.37;;
20340;SDS011;10328;50.042;8.238;2022-07-06T04:40:20;5.53;;;2.80;;
20340;SDS011;10328;50.042;8.238;2022-07-06T04:42:47;4.03;;;2.67;;
20340;SDS011;10328;50.042;8.238;2022-07-06T04:45:14;6.63;;;2.93;;
20340;SDS011;10328;50.042;8.238;2022-07-06T04:47:40;5.00;;;2.93;;
20340;SDS011;10328;50.042;8.238;2022-07-06T04:50:08;4.87;;;3.30;;
20340;SDS011;10328;50.042;8.238;2022-07-06T04:52:35;6.70;;;2.90;;
20340;SDS011;10328;50.042;8.238;2022-07-06T04:55:02;5.40;;;3.30;;
20340;SDS011;10328;50.042;8.238;2022-07-06T04:57:31;4.33;;;2.60;;
20340;SDS011;10328;50.042;8.238;2022-07-06T04:59:58;5.30;;;2.90;;
20340;SDS011;10328;50.042;8.238;2022-07-06T05:02:25;7.23;;;3.20;;
20340;SDS011;10328;50.042;8.238;2022-07-06T05:04:52;6.47;;;2.90;;
20340;SDS011;10328;50.042;8.238;2022-07-06T05:07:18;6.93;;;3.10;;
20340;SDS011;10328;50.042;8.238;2022-07-06T05:09:45;4.17;;;2.83;;
20340;SDS011;10328;50.042;8.238;2022-07-06T05:12:17;4.87;;;2.80;;
20340;SDS011;10328;50.042;8.238;2022-07-06T05:14:43;5.83;;;2.70;;
20340;SDS011;10328;50.042;8.238;2022-07-06T05:17:10;6.13;;;3.10;;
20340;SDS011;10328;50.042;8.238;2022-07-06T05:19:37;5.13;;;2.57;;
20340;SDS011;10328;50.042;8.238;2022-07-06T05:22:03;6.10;;;3.10;;
20340;SDS011;10328;50.042;8.238;2022-07-06T05:24:30;7.37;;;3.10;;
20340;SDS011;10328;50.042;8.238;2022-07-06T05:26:56;4.87;;;2.57;;
20340;SDS011;10328;50.042;8.238;2022-07-06T05:29:23;6.40;;;2.90;;
20340;SDS011;10328;50.042;8.238;2022-07-06T05:31:49;8.50;;;3.30;;
20340;SDS011;10328;50.042;8.238;2022-07-06T05:34:16;5.60;;;2.67;;
20340;SDS011;10328;50.042;8.238;2022-07-06T05:36:43;4.47;;;2.70;;
20340;SDS011;10328;50.042;8.238;2022-07-06T05:39:10;7.97;;;3.00;;
20340;SDS011;10328;50.042;8.238;2022-07-06T05:41:37;5.57;;;2.93;;
20340;SDS011;10328;50.042;8.238;2022-07-06T05:44:03;5.80;;;3.07;;
20340;SDS011;10328;50.042;8.238;2022-07-06T05:46:30;5.53;;;3.03;;
20340;SDS011;10328;50.042;8.238;2022-07-06T05:48:57;6.20;;;3.00;;
20340;SDS011;10328;50.042;8.238;2022-07-06T05:51:42;5.80;;;3.00;;
20340;SDS011;10328;50.042;8.238;2022-07-06T05:54:09;7.20;;;3.30;;
20340;SDS011;10328;50.042;8.238;2022-07-06T05:56:35;6.80;;;3.03;;
20340;SDS011;10328;50.042;8.238;2022-07-06T05:59:02;5.47;;;2.80;;
20340;SDS011;10328;50.042;8.238;2022-07-06T06:01:28;5.80;;;3.10;;
20340;SDS011;10328;50.042;8.238;2022-07-06T06:03:55;5.40;;;2.67;;
20340;SDS011;10328;50.042;8.238;2022-07-06T06:06:22;5.50;;;2.90;;
20340;SDS011;10328;50.042;8.238;2022-07-06T06:08:48;6.87;;;3.17;;
20340;SDS011;10328;50.042;8.238;2022-07-06T06:11:15;5.67;;;2.63;;
20340;SDS011;10328;50.042;8.238;2022-07-06T06:13:42;5.53;;;2.80;;
20340;SDS011;10328;50.042;8.238;2022-07-06T06:16:08;3.57;;;2.50;;
20340;SDS011;10328;50.042;8.238;2022-07-06T06:18:35;5.87;;;2.60;;
20340;SDS011;10328;50.042;8.238;2022-07-06T06:21:07;5.93;;;2.43;;
20340;SDS011;10328;50.042;8.238;2022-07-06T06:23:35;5.30;;;4.00;;
20340;SDS011;10328;50.042;8.238;2022-07-06T06:26:01;5.87;;;3.50;;
20340;SDS011;10328;50.042;8.238;2022-07-06T06:28:28;4.83;;;2.90;;
20340;SDS011;10328;50.042;8.238;2022-07-06T06:30:55;5.87;;;2.90;;
20340;SDS011;10328;50.042;8.238;2022-07-06T06:33:22;8.67;;;3.20;;
20340;SDS011;10328;50.042;8.238;2022-07-06T06:35:49;7.47;;;2.50;;
20340;SDS011;10328;50.042;8.238;2022-07-06T06:38:18;4.20;;;3.00;;
20340;SDS011;10328;50.042;8.238;2022-07-06T06:40:46;6.83;;;2.50;;
20340;SDS011;10328;50.042;8.238;2022-07-06T06:43:13;4.47;;;2.60;;
20340;SDS011;10328;50.042;8.238;2022-07-06T06:45:40;5.13;;;2.40;;
20340;SDS011;10328;50.042;8.238;2022-07-06T06:48:06;4.47;;;2.23;;
20340;SDS011;10328;50.042;8.238;2022-07-06T06:50:41;4.00;;;2.40;;
20340;SDS011;10328;50.042;8.238;2022-07-06T06:53:08;6.50;;;2.53;;
20340;SDS011;10328;50.042;8.238;2022-07-06T06:55:34;2.27;;;1.97;;
20340;SDS011;10328;50.042;8.238;2022-07-06T06:58:01;3.60;;;2.60;;
20340;SDS011;10328;50.042;8.238;2022-07-06T07:00:28;4.70;;;1.90;;
20340;SDS011;10328;50.042;8.238;2022-07-06T07:02:55;3.30;;;2.37;;
20340;SDS011;10328;50.042;8.238;2022-07-06T07:05:21;2.50;;;1.70;;
20340;SDS011;10328;50.042;8.238;2022-07-06T07:07:48;4.97;;;2.50;;
20340;SDS011;10328;50.042;8.238;2022-07-06T07:10:14;3.17;;;1.90;;
20340;SDS011;10328;50.042;8.238;2022-07-06T07:12:45;5.00;;;2.57;;
20340;SDS011;10328;50.042;8.238;2022-07-06T07:15:12;4.80;;;2.33;;
20340;SDS011;10328;50.042;8.238;2022-07-06T07:17:40;5.07;;;2.20;;
20340;SDS011;10328;50.042;8.238;2022-07-06T07:20:07;6.23;;;2.27;;
20340;SDS011;10328;50.042;8.238;2022-07-06T07:22:34;6.57;;;2.30;;
20340;SDS011;10328;50.042;8.238;2022-07-06T07:25:01;5.37;;;2.50;;
20340;SDS011;10328;50.042;8.238;2022-07-06T07:27:28;3.87;;;2.00;;
20340;SDS011;10328;50.042;8.238;2022-07-06T07:29:55;4.30;;;1.70;;
20340;SDS011;10328;50.042;8.238;2022-07-06T07:32:22;4.83;;;2.10;;
20340;SDS011;10328;50.042;8.238;2022-07-06T07:34:48;2.67;;;1.77;;
20340;SDS011;10328;50.042;8.238;2022-07-06T07:37:15;3.67;;;1.80;;
20340;SDS011;10328;50.042;8.238;2022-07-06T07:39:42;2.20;;;1.67;;
20340;SDS011;10328;50.042;8.238;2022-07-06T07:42:08;4.17;;;1.97;;
20340;SDS011;10328;50.042;8.238;2022-07-06T07:44:42;4.67;;;1.77;;
20340;SDS011;10328;50.042;8.238;2022-07-06T07:47:09;3.93;;;2.00;;
20340;SDS011;10328;50.042;8.238;2022-07-06T07:49:36;2.77;;;1.83;;
20340;SDS011;10328;50.042;8.238;2022-07-06T07:52:02;7.77;;;2.07;;
20340;SDS011;10328;50.042;8.238;2022-07-06T07:54:29;2.90;;;1.70;;
20340;SDS011;10328;50.042;8.238;2022-07-06T07:56:56;4.43;;;1.80;;
20340;SDS011;10328;50.042;8.238;2022-07-06T07:59:23;2.10;;;1.87;;
20340;SDS011;10328;50.042;8.238;2022-07-06T08:01:49;3.40;;;1.90;;
20340;SDS011;10328;50.042;8.238;2022-07-06T08:04:16;2.67;;;2.10;;
20340;SDS011;10328;50.042;8.238;2022-07-06T08:06:43;2.00;;;1.80;;
20340;SDS011;10328;50.042;8.238;2022-07-06T08:09:10;2.23;;;1.80;;
20340;SDS011;10328;50.042;8.238;2022-07-06T08:11:36;3.30;;;1.83;;
20340;SDS011;10328;50.042;8.238;2022-07-06T08:14:03;3.37;;;2.00;;
20340;SDS011;10328;50.042;8.238;2022-07-06T08:16:30;6.37;;;1.83;;
20340;SDS011;10328;50.042;8.238;2022-07-06T08:18:57;3.20;;;2.00;;
20340;SDS011;10328;50.042;8.238;2022-07-06T08:21:24;5.00;;;1.83;;
20340;SDS011;10328;50.042;8.238;2022-07-06T08:23:53;3.17;;;1.80;;
20340;SDS011;10328;50.042;8.238;2022-07-06T08:26:21;2.60;;;1.97;;
20340;SDS011;10328;50.042;8.238;2022-07-06T08:28:48;2.73;;;1.80;;
20340;SDS011;10328;50.042;8.238;2022-07-06T08:31:15;3.10;;;1.80;;
20340;SDS011;10328;50.042;8.238;2022-07-06T08:34:02;2.90;;;2.10;;
20340;SDS011;10328;50.042;8.238;2022-07-06T08:36:29;3.00;;;1.50;;
20340;SDS011;10328;50.042;8.238;2022-07-06T08:38:56;3.53;;;1.67;;
20340;SDS011;10328;50.042;8.238;2022-07-06T08:41:23;4.70;;;1.70;;
20340;SDS011;10328;50.042;8.238;2022-07-06T08:43:52;4.37;;;1.60;;
20340;SDS011;10328;50.042;8.238;2022-07-06T08:46:19;2.60;;;1.80;;
20340;SDS011;10328;50.042;8.238;2022-07-06T08:48:46;1.63;;;1.43;;
20340;SDS011;10328;50.042;8.238;2022-07-06T08:51:14;3.50;;;1.70;;
20340;SDS011;10328;50.042;8.238;2022-07-06T08:53:41;1.43;;;1.33;;
20340;SDS011;10328;50.042;8.238;2022-07-06T08:56:08;1.97;;;1.60;;
20340;SDS011;10328;50.042;8.238;2022-07-06T08:58:35;2.67;;;1.63;;
20340;SDS011;10328;50.042;8.238;2022-07-06T09:01:02;4.77;;;1.90;;
20340;SDS011;10328;50.042;8.238;2022-07-06T09:03:30;1.83;;;1.60;;
20340;SDS011;10328;50.042;8.238;2022-07-06T09:05:58;3.90;;;2.13;;
20340;SDS011;10328;50.042;8.238;2022-07-06T09:08:27;3.37;;;1.77;;
20340;SDS011;10328;50.042;8.238;2022-07-06T09:10:55;5.53;;;2.07;;
20340;SDS011;10328;50.042;8.238;2022-07-06T09:13:22;2.40;;;2.20;;
20340;SDS011;10328;50.042;8.238;2022-07-06T09:15:49;4.33;;;2.57;;
20340;SDS011;10328;50.042;8.238;2022-07-06T09:18:31;3.30;;;2.57;;
20340;SDS011;10328;50.042;8.238;2022-07-06T09:21:04;4.87;;;2.93;;
20340;SDS011;10328;50.042;8.238;2022-07-06T09:23:31;6.23;;;3.00;;
20340;SDS011;10328;50.042;8.238;2022-07-06T09:26:01;3.53;;;2.90;;
20340;SDS011;10328;50.042;8.238;2022-07-06T09:28:40;3.63;;;2.60;;
20340;SDS011;10328;50.042;8.238;2022-07-06T09:31:08;4.27;;;3.20;;
20340;SDS011;10328;50.042;8.238;2022-07-06T09:34:01;4.37;;;3.40;;
20340;SDS011;10328;50.042;8.238;2022-07-06T09:39:19;4.70;;;3.47;;
20340;SDS011;10328;50.042;8.238;2022-07-06T09:41:46;4.07;;;3.40;;
20340;SDS011;10328;50.042;8.238;2022-07-06T09:44:18;3.40;;;3.10;;
20340;SDS011;10328;50.042;8.238;2022-07-06T09:46:47;3.97;;;3.20;;
20340;SDS011;10328;50.042;8.238;2022-07-06T09:49:18;3.30;;;2.88;;
20340;SDS011;10328;50.042;8.238;2022-07-06T09:51:46;3.87;;;2.77;;
20340;SDS011;10328;50.042;8.238;2022-07-06T09:54:14;3.15;;;2.85;;
20340;SDS011;10328;50.042;8.238;2022-07-06T09:56:42;3.70;;;2.95;;
20340;SDS011;10328;50.042;8.238;2022-07-06T09:59:10;4.20;;;2.87;;
20340;SDS011;10328;50.042;8.238;2022-07-06T10:01:38;5.67;;;2.77;;
20340;SDS011;10328;50.042;8.238;2022-07-06T10:04:06;3.23;;;2.70;;
20340;SDS011;10328;50.042;8.238;2022-07-06T10:06:33;4.30;;;2.90;;
20340;SDS011;10328;50.042;8.238;2022-07-06T10:09:00;3.80;;;2.57;;
20340;SDS011;10328;50.042;8.238;2022-07-06T10:11:28;2.60;;;2.40;;
20340;SDS011;10328;50.042;8.238;2022-07-06T10:13:56;2.30;;;2.10;;
20340;SDS011;10328;50.042;8.238;2022-07-06T10:16:23;5.60;;;2.50;;
20340;SDS011;10328;50.042;8.238;2022-07-06T10:18:52;2.73;;;2.33;;
20340;SDS011;10328;50.042;8.238;2022-07-06T10:21:21;3.28;;;2.30;;
20340;SDS011;10328;50.042;8.238;2022-07-06T10:23:49;3.55;;;2.30;;
20340;SDS011;10328;50.042;8.238;2022-07-06T10:26:16;4.43;;;2.50;;
20340;SDS011;10328;50.042;8.238;2022-07-06T10:28:44;4.45;;;2.60;;
20340;SDS011;10328;50.042;8.238;2022-07-06T10:31:14;3.78;;;2.50;;
20340;SDS011;10328;50.042;8.238;2022-07-06T10:33:45;3.35;;;2.03;;
20340;SDS011;10328;50.042;8.238;2022-07-06T10:36:13;2.20;;;2.00;;
20340;SDS011;10328;50.042;8.238;2022-07-06T10:38:42;3.85;;;1.90;;
20340;SDS011;10328;50.042;8.238;2022-07-06T10:41:16;2.47;;;2.00;;
20340;SDS011;10328;50.042;8.238;2022-07-06T10:43:44;2.55;;;1.95;;
20340;SDS011;10328;50.042;8.238;2022-07-06T10:46:15;3.33;;;1.63;;
20340;SDS011;10328;50.042;8.238;2022-07-06T10:48:47;2.38;;;2.03;;
20340;SDS011;10328;50.042;8.238;2022-07-06T10:51:24;1.98;;;1.85;;
20340;SDS011;10328;50.042;8.238;2022-07-06T10:53:56;3.10;;;1.83;;
20340;SDS011;10328;50.042;8.238;2022-07-06T10:56:36;2.95;;;2.13;;
20340;SDS011;10328;50.042;8.238;2022-07-06T10:59:08;2.35;;;1.63;;
20340;SDS011;10328;50.042;8.238;2022-07-06T11:01:37;2.75;;;1.60;;
20340;SDS011;10328;50.042;8.238;2022-07-06T11:04:12;2.45;;;1.60;;
20340;SDS011;10328;50.042;8.238;2022-07-06T11:06:40;2.20;;;1.60;;
20340;SDS011;10328;50.042;8.238;2022-07-06T11:09:08;3.92;;;1.70;;
20340;SDS011;10328;50.042;8.238;2022-07-06T11:14:09;2.08;;;1.70;;
20340;SDS011;10328;50.042;8.238;2022-07-06T11:19:16;3.92;;;2.08;;
20340;SDS011;10328;50.042;8.238;2022-07-06T11:24:11;3.63;;;1.52;;
20340;SDS011;10328;50.042;8.238;2022-07-06T11:26:43;5.07;;;1.60;;
20340;SDS011;10328;50.042;8.238;2022-07-06T11:29:12;2.72;;;1.60;;
20340;SDS011;10328;50.042;8.238;2022-07-06T11:31:41;2.95;;;1.60;;
20340;SDS011;10328;50.042;8.238;2022-07-06T11:34:10;2.60;;;1.65;;
20340;SDS011;10328;50.042;8.238;2022-07-06T11:36:40;2.47;;;1.55;;
20340;SDS011;10328;50.042;8.238;2022-07-06T11:39:11;2.97;;;1.73;;
20340;SDS011;10328;50.042;8.238;2022-07-06T11:41:38;2.03;;;1.60;;
20340;SDS011;10328;50.042;8.238;2022-07-06T11:44:05;4.60;;;1.40;;
20340;SDS011;10328;50.042;8.238;2022-07-06T11:46:35;4.28;;;1.85;;
20340;SDS011;10328;50.042;8.238;2022-07-06T11:49:03;2.17;;;1.73;;
20340;SDS011;10328;50.042;8.238;2022-07-06T11:51:32;1.90;;;1.80;;
20340;SDS011;10328;50.042;8.238;2022-07-06T11:54:24;2.97;;;1.95;;
20340;SDS011;10328;50.042;8.238;2022-07-06T11:56:52;3.60;;;1.90;;
20340;SDS011;10328;50.042;8.238;2022-07-06T11:59:25;3.92;;;1.70;;
20340;SDS011;10328;50.042;8.238;2022-07-06T12:02:03;2.17;;;1.85;;
20340;SDS011;10328;50.042;8.238;2022-07-06T12:04:34;2.38;;;1.80;;
20340;SDS011;10328;50.042;8.238;2022-07-06T12:07:10;1.83;;;1.73;;
20340;SDS011;10328;50.042;8.238;2022-07-06T12:09:39;2.35;;;1.80;;
20340;SDS011;10328;50.042;8.238;2022-07-06T12:12:07;2.22;;;1.90;;
20340;SDS011;10328;50.042;8.238;2022-07-06T12:14:36;3.47;;;1.95;;
20340;SDS011;10328;50.042;8.238;2022-07-06T12:17:04;2.92;;;2.00;;
20340;SDS011;10328;50.042;8.238;2022-07-06T12:19:34;3.70;;;2.05;;
20340;SDS011;10328;50.042;8.238;2022-07-06T12:22:01;2.45;;;2.03;;
20340;SDS011;10328;50.042;8.238;2022-07-06T12:24:29;2.40;;;2.20;;
20340;SDS011;10328;50.042;8.238;2022-07-06T12:26:59;3.15;;;2.17;;
20340;SDS011;10328;50.042;8.238;2022-07-06T12:29:38;4.68;;;2.03;;
20340;SDS011;10328;50.042;8.238;2022-07-06T12:32:05;5.05;;;2.00;;
20340;SDS011;10328;50.042;8.238;2022-07-06T12:34:32;2.00;;;1.80;;
20340;SDS011;10328;50.042;8.238;2022-07-06T12:37:05;3.28;;;2.15;;
20340;SDS011;10328;50.042;8.238;2022-07-06T12:39:41;3.15;;;1.83;;
20340;SDS011;10328;50.042;8.238;2022-07-06T12:42:09;3.67;;;1.90;;
20340;SDS011;10328;50.042;8.238;2022-07-06T12:44:43;5.30;;;2.15;;
20340;SDS011;10328;50.042;8.238;2022-07-06T12:47:12;3.00;;;1.83;;
20340;SDS011;10328;50.042;8.238;2022-07-06T12:49:42;2.75;;;2.00;;
20340;SDS011;10328;50.042;8.238;2022-07-06T12:52:15;2.60;;;2.00;;
20340;SDS011;10328;50.042;8.238;2022-07-06T12:54:43;2.38;;;2.03;;
20340;SDS011;10328;50.042;8.238;2022-07-06T12:57:18;5.30;;;1.90;;
20340;SDS011;10328;50.042;8.238;2022-07-06T12:59:48;2.47;;;1.90;;
20340;SDS011;10328;50.042;8.238;2022-07-06T13:02:32;2.10;;;1.65;;
20340;SDS011;10328;50.042;8.238;2022-07-06T13:05:22;3.50;;;1.70;;
20340;SDS011;10328;50.042;8.238;2022-07-06T13:07:54;2.92;;;1.70;;
20340;SDS011;10328;50.042;8.238;2022-07-06T13:10:22;2.45;;;1.90;;
20340;SDS011;10328;50.042;8.238;2022-07-06T13:12:49;3.53;;;1.90;;
20340;SDS011;10328;50.042;8.238;2022-07-06T13:15:16;2.45;;;1.52;;
20340;SDS011;10328;50.042;8.238;2022-07-06T13:17:43;3.28;;;1.67;;
20340;SDS011;10328;50.042;8.238;2022-07-06T13:20:12;2.33;;;1.60;;
20340;SDS011;10328;50.042;8.238;2022-07-06T13:22:39;2.58;;;1.63;;
20340;SDS011;10328;50.042;8.238;2022-07-06T13:25:06;1.85;;;1.63;;
20340;SDS011;10328;50.042;8.238;2022-07-06T13:27:33;4.95;;;1.92;;
20340;SDS011;10328;50.042;8.238;2022-07-06T13:30:01;3.20;;;1.70;;
20340;SDS011;10328;50.042;8.238;2022-07-06T13:32:29;3.95;;;1.67;;
20340;SDS011;10328;50.042;8.238;2022-07-06T13:34:56;4.03;;;1.73;;
20340;SDS011;10328;50.042;8.238;2022-07-06T13:37:22;4.72;;;2.13;;
20340;SDS011;10328;50.042;8.238;2022-07-06T13:39:49;1.60;;;1.48;;
20340;SDS011;10328;50.042;8.238;2022-07-06T13:42:16;4.20;;;2.00;;
20340;SDS011;10328;50.042;8.238;2022-07-06T13:44:43;3.28;;;1.70;;
20340;SDS011;10328;50.042;8.238;2022-07-06T13:47:09;2.75;;;1.80;;
20340;SDS011;10328;50.042;8.238;2022-07-06T13:49:37;2.70;;;1.73;;
20340;SDS011;10328;50.042;8.238;2022-07-06T13:52:03;1.45;;;1.35;;
20340;SDS011;10328;50.042;8.238;2022-07-06T13:54:31;4.47;;;1.48;;
20340;SDS011;10328;50.042;8.238;2022-07-06T13:56:58;3.38;;;1.60;;
20340;SDS011;10328;50.042;8.238;2022-07-06T13:59:27;2.13;;;1.70;;
20340;SDS011;10328;50.042;8.238;2022-07-06T14:01:54;3.78;;;1.70;;
20340;SDS011;10328;50.042;8.238;2022-07-06T14:04:21;4.65;;;1.60;;
20340;SDS011;10328;50.042;8.238;2022-07-06T14:06:47;1.65;;;1.30;;
20340;SDS011;10328;50.042;8.238;2022-07-06T14:09:14;4.90;;;1.60;;
20340;SDS011;10328;50.042;8.238;2022-07-06T14:11:40;5.10;;;1.77;;
20340;SDS011;10328;50.042;8.238;2022-07-06T14:14:07;3.90;;;1.70;;
20340;SDS011;10328;50.042;8.238;2022-07-06T14:16:34;2.25;;;1.60;;
20340;SDS011;10328;50.042;8.238;2022-07-06T14:19:01;6.30;;;1.45;;
20340;SDS011;10328;50.042;8.238;2022-07-06T14:21:28;2.85;;;1.70;;
20340;SDS011;10328;50.042;8.238;2022-07-06T14:23:55;2.47;;;1.60;;
20340;SDS011;10328;50.042;8.238;2022-07-06T14:26:21;1.88;;;1.65;;
20340;SDS011;10328;50.042;8.238;2022-07-06T14:28:48;3.03;;;1.70;;
20340;SDS011;10328;50.042;8.238;2022-07-06T14:31:15;2.05;;;1.40;;
20340;SDS011;10328;50.042;8.238;2022-07-06T14:33:47;2.53;;;1.80;;
20340;SDS011;10328;50.042;8.238;2022-07-06T14:36:17;4.25;;;2.03;;
20340;SDS011;10328;50.042;8.238;2022-07-06T14:38:44;3.58;;;1.70;;
20340;SDS011;10328;50.042;8.238;2022-07-06T14:41:11;3.90;;;1.95;;
20340;SDS011;10328;50.042;8.238;2022-07-06T14:43:38;2.28;;;2.05;;
20340;SDS011;10328;50.042;8.238;2022-07-06T14:46:04;6.03;;;2.22;;
20340;SDS011;10328;50.042;8.238;2022-07-06T14:48:31;3.67;;;2.25;;
20340;SDS011;10328;50.042;8.238;2022-07-06T14:50:58;5.70;;;2.45;;
20340;SDS011;10328;50.042;8.238;2022-07-06T14:53:25;4.15;;;2.42;;
20340;SDS011;10328;50.042;8.238;2022-07-06T14:55:52;5.47;;;2.40;;
20340;SDS011;10328;50.042;8.238;2022-07-06T14:58:19;3.70;;;2.35;;
20340;SDS011;10328;50.042;8.238;2022-07-06T15:00:48;4.13;;;2.40;;
20340;SDS011;10328;50.042;8.238;2022-07-06T15:03:23;2.70;;;2.50;;
20340;SDS011;10328;50.042;8.238;2022-07-06T15:05:50;3.08;;;2.67;;